首页
METAR-TAF:

METAR-TAF

机场 :

Big Trout Lake, 安大略省, 加拿大

纬度: 53-50N, 经度: 089-52W, 海拔: 224米

当前天气观测

该预报发布于24小时和52分钟前的21:20 UTC
风速6节,风向西转西南
温度 22°C
湿度 57%
气压 996 hPa
能見度: 14.5公里
少量云层高于13000英尺

METAR: CYTL 242120Z AUTO 24006KT 9SM FEW130 22/13 A2941 RMK SLP964 DENSITY ALT 2300FT

时间: 17:12 (22:12 UTC)

预报

该预报发布于26小时和32分钟前的19:40 UTC
预报有效从24日的 20点(UTC)到 25日的 08点(UTC)
风速12节,风向西南,有时为22节阵风
能見度: 10公里
散云层高于6000英尺
多云层高于10000英尺
短暂存在
从 24日的 21点(UTC)到 24日的 23点(UTC)
能見度: 10公里
多云层高于6000英尺
阴天层高于10000英尺
小阵雨
从 24日的 2300点(UTC)
风速10节,风向西南
能見度: 10公里
多云层高于6000英尺
阴天层高于15000英尺
小阵雨
短暂存在
从 24日的 23点(UTC)到 25日的 02点(UTC)
能見度: 8.0公里
少量云层高于600英尺
多云层高于5000英尺
阴天层高于12000英尺
阵雨, 轻雾
几率 40%
从 24日的 23点(UTC)到 25日的 02点(UTC)
风速15节,风向多变,有时为25节阵风
能見度: 3.2公里
多云层高于600英尺
阴天层高于4000英尺, 积雨云.
雷暴, 雨, 轻雾
从 25日的 0200点(UTC)
风速3节,风向多变
能見度: 3.2公里
阴天层高于600英尺
小毛毛雨, 轻雾
从 25日的 0600点(UTC)
风速8节,风向西转西南,有时为18节阵风
能見度: 9.7公里
多云层高于600英尺
小毛毛雨, 轻雾

TAF: CYTL 241940Z 2420/2508 22012G22KT P6SM SCT060 BKN100 TEMPO 2421/2423 P6SM -SHRA BKN060 OVC100 FM242300 22010KT P6SM -SHRA BKN060 OVC150 TEMPO 2423/2502 5SM SHRA BR FEW006 BKN050 OVC120 PROB40 2423/2502 VRB15G25KT 2SM TSRA BR BKN006 OVC040CB FM250200 VRB03KT 2SM -DZ BR OVC006 FM250600 24008G18KT 6SM -DZ BR BKN006 RMK FCST BASED ON AUTO OBS. NXT FCST BY 250200Z

超过4000个机场的气象观测和天气预报(METAR&TAF报告)。

可查询的气象台以黄色和红色小点在地图上表示。

将鼠标移到小点上方,可查看气象台名称。

然后点击查看天气观测和预报。

如需切换地图:点击带黑十字的绿色按钮放大地图;点击带横线的绿色按钮缩小地图;或者点击绿色箭头查看邻近地区的地图。


METAR-TAF: